Guerneville, California
Current Conditions -  °F | °C
As of 3:53 PM on Saturday 22 Nov 2014 (Local Time) from KSTS Reporting Station
Scattered Clouds Scattered Clouds  
Wind Chill: 64°   Ceiling: Unl
Heat Index: 64°   Visibility: 10mi
Dew Point: 45°   Wind: 12mph
Humidity: 50%   Direction: 320°NW
Pressure: 30.12"   Gusts: NA
Location:  38.5°N, 123°W
Report Text: KSTS 222353Z 32010KT 10SM FEW030 SCT150 18/07 A3012 RMK AO2 SLP194 T01780072 10206 20178 51017
Loading
Personal Weather Stations






























Interactive Weather Map New forecast layout! Learn more

10-Day Weather Forecast

Advertisements
Track Severe Weather on mobile